sensor_id;sensor_type;location;lat;lon;timestamp;temperature;humidity
324;DHT22;149;51.094;17.002;2023-09-30T00:00:27;18.70;99.90
324;DHT22;149;51.094;17.002;2023-09-30T00:02:54;18.60;99.90
324;DHT22;149;51.094;17.002;2023-09-30T00:05:21;18.60;99.90
324;DHT22;149;51.094;17.002;2023-09-30T00:07:48;18.60;99.90
324;DHT22;149;51.094;17.002;2023-09-30T00:10:16;18.60;99.90
324;DHT22;149;51.094;17.002;2023-09-30T00:12:43;18.60;99.90
324;DHT22;149;51.094;17.002;2023-09-30T00:15:10;18.60;99.90
324;DHT22;149;51.094;17.002;2023-09-30T00:17:37;18.60;99.90
324;DHT22;149;51.094;17.002;2023-09-30T00:20:05;18.60;99.90
324;DHT22;149;51.094;17.002;2023-09-30T00:22:32;18.60;99.90
324;DHT22;149;51.094;17.002;2023-09-30T00:25:00;18.60;99.90
324;DHT22;149;51.094;17.002;2023-09-30T00:27:27;18.50;99.90
324;DHT22;149;51.094;17.002;2023-09-30T00:29:55;18.60;99.90
324;DHT22;149;51.094;17.002;2023-09-30T00:32:22;18.60;99.90
324;DHT22;149;51.094;17.002;2023-09-30T00:34:49;18.80;99.90
324;DHT22;149;51.094;17.002;2023-09-30T00:37:16;18.80;99.90
324;DHT22;149;51.094;17.002;2023-09-30T00:39:43;18.70;99.90
324;DHT22;149;51.094;17.002;2023-09-30T00:42:11;18.80;99.90
324;DHT22;149;51.094;17.002;2023-09-30T00:44:38;18.70;99.90
324;DHT22;149;51.094;17.002;2023-09-30T00:47:05;18.80;99.90
324;DHT22;149;51.094;17.002;2023-09-30T00:49:33;18.80;99.90
324;DHT22;149;51.094;17.002;2023-09-30T00:52:01;18.80;99.90
324;DHT22;149;51.094;17.002;2023-09-30T00:54:29;18.90;99.90
324;DHT22;149;51.094;17.002;2023-09-30T00:56:57;18.90;99.90
324;DHT22;149;51.094;17.002;2023-09-30T00:59:29;18.90;99.90
324;DHT22;149;51.094;17.002;2023-09-30T01:02:01;18.90;99.90
324;DHT22;149;51.094;17.002;2023-09-30T01:04:29;18.90;99.90
324;DHT22;149;51.094;17.002;2023-09-30T01:06:57;18.90;99.90
324;DHT22;149;51.094;17.002;2023-09-30T01:09:26;18.80;99.90
324;DHT22;149;51.094;17.002;2023-09-30T01:11:54;18.90;99.90
324;DHT22;149;51.094;17.002;2023-09-30T01:14:34;19.00;99.90
324;DHT22;149;51.094;17.002;2023-09-30T01:17:01;19.00;99.90
324;DHT22;149;51.094;17.002;2023-09-30T01:19:29;19.00;99.90
324;DHT22;149;51.094;17.002;2023-09-30T01:21:57;19.20;99.90
324;DHT22;149;51.094;17.002;2023-09-30T01:24:26;19.20;99.90
324;DHT22;149;51.094;17.002;2023-09-30T01:26:54;19.20;99.90
324;DHT22;149;51.094;17.002;2023-09-30T01:29:21;19.10;99.90
324;DHT22;149;51.094;17.002;2023-09-30T01:31:49;19.20;99.90
324;DHT22;149;51.094;17.002;2023-09-30T01:34:16;19.20;99.90
324;DHT22;149;51.094;17.002;2023-09-30T01:36:44;19.20;99.90
324;DHT22;149;51.094;17.002;2023-09-30T01:39:11;19.00;99.90
324;DHT22;149;51.094;17.002;2023-09-30T01:41:39;19.20;99.90
324;DHT22;149;51.094;17.002;2023-09-30T01:44:07;19.20;99.90
324;DHT22;149;51.094;17.002;2023-09-30T01:46:36;19.20;99.90
324;DHT22;149;51.094;17.002;2023-09-30T01:49:03;19.40;99.90
324;DHT22;149;51.094;17.002;2023-09-30T01:51:31;19.40;99.90
324;DHT22;149;51.094;17.002;2023-09-30T01:53:58;19.40;99.90
324;DHT22;149;51.094;17.002;2023-09-30T01:56:26;19.50;99.90
324;DHT22;149;51.094;17.002;2023-09-30T01:58:53;19.60;99.90
324;DHT22;149;51.094;17.002;2023-09-30T02:01:21;19.60;99.90
324;DHT22;149;51.094;17.002;2023-09-30T02:03:48;19.60;99.90
324;DHT22;149;51.094;17.002;2023-09-30T02:06:16;19.40;99.90
324;DHT22;149;51.094;17.002;2023-09-30T02:08:43;19.50;99.90
324;DHT22;149;51.094;17.002;2023-09-30T02:11:11;19.50;99.90
324;DHT22;149;51.094;17.002;2023-09-30T02:13:43;19.50;99.90
324;DHT22;149;51.094;17.002;2023-09-30T02:16:12;19.40;99.90
324;DHT22;149;51.094;17.002;2023-09-30T02:18:42;19.30;99.90
324;DHT22;149;51.094;17.002;2023-09-30T02:21:12;19.50;99.90
324;DHT22;149;51.094;17.002;2023-09-30T02:23:39;19.40;99.90
324;DHT22;149;51.094;17.002;2023-09-30T02:26:06;19.50;99.90
324;DHT22;149;51.094;17.002;2023-09-30T02:28:33;19.60;99.90
324;DHT22;149;51.094;17.002;2023-09-30T02:31:01;19.50;99.90
324;DHT22;149;51.094;17.002;2023-09-30T02:33:28;19.50;99.90
324;DHT22;149;51.094;17.002;2023-09-30T02:36:00;19.60;99.90
324;DHT22;149;51.094;17.002;2023-09-30T02:38:27;19.60;99.90
324;DHT22;149;51.094;17.002;2023-09-30T02:40:55;19.60;99.90
324;DHT22;149;51.094;17.002;2023-09-30T02:43:22;19.60;99.90
324;DHT22;149;51.094;17.002;2023-09-30T02:45:48;19.60;99.90
324;DHT22;149;51.094;17.002;2023-09-30T02:48:17;19.60;99.90
324;DHT22;149;51.094;17.002;2023-09-30T02:50:44;19.60;99.90
324;DHT22;149;51.094;17.002;2023-09-30T02:53:12;19.70;99.90
324;DHT22;149;51.094;17.002;2023-09-30T02:55:42;19.60;99.90
324;DHT22;149;51.094;17.002;2023-09-30T02:58:10;19.50;99.90
324;DHT22;149;51.094;17.002;2023-09-30T03:00:38;19.50;99.90
324;DHT22;149;51.094;17.002;2023-09-30T03:03:05;19.30;99.90
324;DHT22;149;51.094;17.002;2023-09-30T03:05:35;19.20;99.90
324;DHT22;149;51.094;17.002;2023-09-30T03:08:05;19.30;99.90
324;DHT22;149;51.094;17.002;2023-09-30T03:10:32;19.10;99.90
324;DHT22;149;51.094;17.002;2023-09-30T03:12:59;19.10;99.90
324;DHT22;149;51.094;17.002;2023-09-30T03:15:29;19.20;99.90
324;DHT22;149;51.094;17.002;2023-09-30T03:17:59;19.10;99.90
324;DHT22;149;51.094;17.002;2023-09-30T03:20:26;19.10;99.90
324;DHT22;149;51.094;17.002;2023-09-30T03:22:57;18.90;99.90
324;DHT22;149;51.094;17.002;2023-09-30T03:25:24;19.00;99.90
324;DHT22;149;51.094;17.002;2023-09-30T03:27:51;18.80;99.90
324;DHT22;149;51.094;17.002;2023-09-30T03:30:18;18.70;99.90
324;DHT22;149;51.094;17.002;2023-09-30T03:32:47;18.50;99.90
324;DHT22;149;51.094;17.002;2023-09-30T03:35:17;18.60;99.90
324;DHT22;149;51.094;17.002;2023-09-30T03:37:46;18.50;99.90
324;DHT22;149;51.094;17.002;2023-09-30T03:40:17;18.50;99.90
324;DHT22;149;51.094;17.002;2023-09-30T03:42:55;18.60;99.90
324;DHT22;149;51.094;17.002;2023-09-30T03:45:22;18.60;99.90
324;DHT22;149;51.094;17.002;2023-09-30T03:47:50;18.60;99.90
324;DHT22;149;51.094;17.002;2023-09-30T03:50:18;18.80;99.90
324;DHT22;149;51.094;17.002;2023-09-30T03:52:46;18.80;99.90
324;DHT22;149;51.094;17.002;2023-09-30T03:55:15;18.80;99.90
324;DHT22;149;51.094;17.002;2023-09-30T03:57:48;18.90;99.90
324;DHT22;149;51.094;17.002;2023-09-30T04:00:16;18.90;99.90
324;DHT22;149;51.094;17.002;2023-09-30T04:02:48;18.90;99.90
324;DHT22;149;51.094;17.002;2023-09-30T04:05:18;18.80;99.90
324;DHT22;149;51.094;17.002;2023-09-30T04:07:48;18.90;99.90
324;DHT22;149;51.094;17.002;2023-09-30T04:10:15;19.00;99.90
324;DHT22;149;51.094;17.002;2023-09-30T04:12:46;19.00;99.90
324;DHT22;149;51.094;17.002;2023-09-30T04:15:13;19.00;99.90
324;DHT22;149;51.094;17.002;2023-09-30T04:17:40;19.00;99.90
324;DHT22;149;51.094;17.002;2023-09-30T04:20:09;18.90;99.90
324;DHT22;149;51.094;17.002;2023-09-30T04:22:38;19.00;99.90
324;DHT22;149;51.094;17.002;2023-09-30T04:25:08;18.90;99.90
324;DHT22;149;51.094;17.002;2023-09-30T04:27:40;18.80;99.90
324;DHT22;149;51.094;17.002;2023-09-30T04:30:07;18.70;99.90
324;DHT22;149;51.094;17.002;2023-09-30T04:32:36;18.70;99.90
324;DHT22;149;51.094;17.002;2023-09-30T04:35:04;18.50;99.90
324;DHT22;149;51.094;17.002;2023-09-30T04:37:32;18.50;99.90
324;DHT22;149;51.094;17.002;2023-09-30T04:39:58;18.40;99.90
324;DHT22;149;51.094;17.002;2023-09-30T04:42:26;18.40;99.90
324;DHT22;149;51.094;17.002;2023-09-30T04:44:54;18.50;99.90
324;DHT22;149;51.094;17.002;2023-09-30T04:47:22;18.40;99.90
324;DHT22;149;51.094;17.002;2023-09-30T04:49:51;18.30;99.90
324;DHT22;149;51.094;17.002;2023-09-30T04:52:18;18.40;99.90
324;DHT22;149;51.094;17.002;2023-09-30T04:54:45;18.40;99.90
324;DHT22;149;51.094;17.002;2023-09-30T04:57:12;18.30;99.90
324;DHT22;149;51.094;17.002;2023-09-30T04:59:39;18.40;99.90
324;DHT22;149;51.094;17.002;2023-09-30T05:02:06;18.40;99.90
324;DHT22;149;51.094;17.002;2023-09-30T05:04:35;18.40;99.90
324;DHT22;149;51.094;17.002;2023-09-30T05:07:08;18.50;99.90
324;DHT22;149;51.094;17.002;2023-09-30T05:09:35;18.40;99.90
324;DHT22;149;51.094;17.002;2023-09-30T05:12:06;18.40;99.90
324;DHT22;149;51.094;17.002;2023-09-30T05:14:33;18.40;99.90
324;DHT22;149;51.094;17.002;2023-09-30T05:17:00;18.40;99.90
324;DHT22;149;51.094;17.002;2023-09-30T05:19:28;18.50;99.90
324;DHT22;149;51.094;17.002;2023-09-30T05:21:55;18.50;99.90
324;DHT22;149;51.094;17.002;2023-09-30T05:24:22;18.50;99.90
324;DHT22;149;51.094;17.002;2023-09-30T05:26:49;18.50;99.90
324;DHT22;149;51.094;17.002;2023-09-30T05:29:19;18.50;99.90
324;DHT22;149;51.094;17.002;2023-09-30T05:31:54;18.50;99.90
324;DHT22;149;51.094;17.002;2023-09-30T05:34:27;18.70;99.90
324;DHT22;149;51.094;17.002;2023-09-30T05:36:55;18.70;99.90
324;DHT22;149;51.094;17.002;2023-09-30T05:39:22;18.90;99.90
324;DHT22;149;51.094;17.002;2023-09-30T05:41:48;18.70;99.90
324;DHT22;149;51.094;17.002;2023-09-30T05:44:16;18.70;99.90
324;DHT22;149;51.094;17.002;2023-09-30T05:46:43;18.70;99.90
324;DHT22;149;51.094;17.002;2023-09-30T05:49:11;18.70;99.90
324;DHT22;149;51.094;17.002;2023-09-30T05:51:48;18.80;99.90
324;DHT22;149;51.094;17.002;2023-09-30T05:54:17;18.70;99.90
324;DHT22;149;51.094;17.002;2023-09-30T05:56:45;18.60;99.90
324;DHT22;149;51.094;17.002;2023-09-30T05:59:11;18.40;99.90
324;DHT22;149;51.094;17.002;2023-09-30T06:01:40;18.60;99.90
324;DHT22;149;51.094;17.002;2023-09-30T06:04:08;18.70;99.90
324;DHT22;149;51.094;17.002;2023-09-30T06:06:36;18.70;99.90
324;DHT22;149;51.094;17.002;2023-09-30T06:09:04;18.70;99.90
324;DHT22;149;51.094;17.002;2023-09-30T06:11:30;18.70;99.90
324;DHT22;149;51.094;17.002;2023-09-30T06:13:58;18.70;99.90
324;DHT22;149;51.094;17.002;2023-09-30T06:16:28;18.50;99.90
324;DHT22;149;51.094;17.002;2023-09-30T06:18:55;18.50;99.90
324;DHT22;149;51.094;17.002;2023-09-30T06:21:24;18.30;99.90
324;DHT22;149;51.094;17.002;2023-09-30T06:23:56;18.20;99.90
324;DHT22;149;51.094;17.002;2023-09-30T06:26:23;18.30;99.90
324;DHT22;149;51.094;17.002;2023-09-30T06:28:51;18.30;99.90
324;DHT22;149;51.094;17.002;2023-09-30T06:31:22;18.00;99.90
324;DHT22;149;51.094;17.002;2023-09-30T06:33:50;18.00;99.90
324;DHT22;149;51.094;17.002;2023-09-30T06:36:18;17.90;99.90
324;DHT22;149;51.094;17.002;2023-09-30T06:38:48;17.80;99.90
324;DHT22;149;51.094;17.002;2023-09-30T06:41:17;17.70;99.90
324;DHT22;149;51.094;17.002;2023-09-30T06:43:45;17.70;99.90
324;DHT22;149;51.094;17.002;2023-09-30T06:46:13;17.70;99.90
324;DHT22;149;51.094;17.002;2023-09-30T06:48:40;17.60;99.90
324;DHT22;149;51.094;17.002;2023-09-30T06:51:14;17.50;99.90
324;DHT22;149;51.094;17.002;2023-09-30T06:53:44;17.50;99.90
324;DHT22;149;51.094;17.002;2023-09-30T06:56:13;17.50;99.90
324;DHT22;149;51.094;17.002;2023-09-30T06:58:41;17.40;99.90
324;DHT22;149;51.094;17.002;2023-09-30T07:01:08;17.50;99.90
324;DHT22;149;51.094;17.002;2023-09-30T07:03:37;17.40;99.90
324;DHT22;149;51.094;17.002;2023-09-30T07:06:05;17.50;99.90
324;DHT22;149;51.094;17.002;2023-09-30T07:08:32;17.50;99.90
324;DHT22;149;51.094;17.002;2023-09-30T07:10:59;17.50;99.90
324;DHT22;149;51.094;17.002;2023-09-30T07:13:28;17.50;99.90
324;DHT22;149;51.094;17.002;2023-09-30T07:15:55;17.50;99.90
324;DHT22;149;51.094;17.002;2023-09-30T07:18:22;17.50;99.90
324;DHT22;149;51.094;17.002;2023-09-30T07:20:51;17.40;99.90
324;DHT22;149;51.094;17.002;2023-09-30T07:23:19;17.30;99.90
324;DHT22;149;51.094;17.002;2023-09-30T07:25:49;17.40;99.90
324;DHT22;149;51.094;17.002;2023-09-30T07:28:15;17.40;99.90
324;DHT22;149;51.094;17.002;2023-09-30T07:30:43;17.50;99.90
324;DHT22;149;51.094;17.002;2023-09-30T07:33:10;17.40;99.90
324;DHT22;149;51.094;17.002;2023-09-30T07:35:37;17.40;99.90
324;DHT22;149;51.094;17.002;2023-09-30T07:38:06;17.30;99.90
324;DHT22;149;51.094;17.002;2023-09-30T07:40:33;17.30;99.90
324;DHT22;149;51.094;17.002;2023-09-30T07:43:00;17.20;99.90
324;DHT22;149;51.094;17.002;2023-09-30T07:45:27;17.00;99.90
324;DHT22;149;51.094;17.002;2023-09-30T07:47:57;16.90;99.90
324;DHT22;149;51.094;17.002;2023-09-30T07:50:25;16.90;99.90
324;DHT22;149;51.094;17.002;2023-09-30T07:52:55;17.00;99.90
324;DHT22;149;51.094;17.002;2023-09-30T07:55:24;17.10;99.90
324;DHT22;149;51.094;17.002;2023-09-30T07:57:51;17.30;99.90
324;DHT22;149;51.094;17.002;2023-09-30T08:00:19;17.50;99.90
324;DHT22;149;51.094;17.002;2023-09-30T08:02:48;17.50;99.90
324;DHT22;149;51.094;17.002;2023-09-30T08:05:15;17.60;99.90
324;DHT22;149;51.094;17.002;2023-09-30T08:07:42;17.80;99.90
324;DHT22;149;51.094;17.002;2023-09-30T08:10:09;17.90;99.90
324;DHT22;149;51.094;17.002;2023-09-30T08:12:40;18.30;99.90
324;DHT22;149;51.094;17.002;2023-09-30T08:15:08;19.20;99.90
324;DHT22;149;51.094;17.002;2023-09-30T08:17:39;20.00;99.90
324;DHT22;149;51.094;17.002;2023-09-30T08:20:07;20.30;99.90
324;DHT22;149;51.094;17.002;2023-09-30T08:22:38;20.50;99.90
324;DHT22;149;51.094;17.002;2023-09-30T08:25:05;20.80;99.90
324;DHT22;149;51.094;17.002;2023-09-30T08:27:36;20.90;99.90
324;DHT22;149;51.094;17.002;2023-09-30T08:30:03;21.40;99.90
324;DHT22;149;51.094;17.002;2023-09-30T08:32:36;21.30;99.90
324;DHT22;149;51.094;17.002;2023-09-30T08:35:07;21.70;99.90
324;DHT22;149;51.094;17.002;2023-09-30T08:37:34;21.50;99.90
324;DHT22;149;51.094;17.002;2023-09-30T08:40:03;20.70;99.90
324;DHT22;149;51.094;17.002;2023-09-30T08:42:33;20.10;99.90
324;DHT22;149;51.094;17.002;2023-09-30T08:45:04;19.70;99.90
324;DHT22;149;51.094;17.002;2023-09-30T08:47:33;20.30;99.90
324;DHT22;149;51.094;17.002;2023-09-30T08:50:03;20.50;99.90
324;DHT22;149;51.094;17.002;2023-09-30T08:52:41;20.40;99.90
324;DHT22;149;51.094;17.002;2023-09-30T08:55:09;20.30;99.90
324;DHT22;149;51.094;17.002;2023-09-30T08:57:55;20.40;99.90
324;DHT22;149;51.094;17.002;2023-09-30T09:00:27;20.60;99.90
324;DHT22;149;51.094;17.002;2023-09-30T09:02:54;20.90;99.90
324;DHT22;149;51.094;17.002;2023-09-30T09:05:21;20.80;99.90
324;DHT22;149;51.094;17.002;2023-09-30T09:07:50;20.90;99.90
324;DHT22;149;51.094;17.002;2023-09-30T09:10:20;20.70;99.90
324;DHT22;149;51.094;17.002;2023-09-30T09:12:55;20.70;99.90
324;DHT22;149;51.094;17.002;2023-09-30T09:15:27;20.40;99.90
324;DHT22;149;51.094;17.002;2023-09-30T09:17:58;20.30;99.90
324;DHT22;149;51.094;17.002;2023-09-30T09:20:25;20.10;99.90
324;DHT22;149;51.094;17.002;2023-09-30T09:22:53;19.90;99.90
324;DHT22;149;51.094;17.002;2023-09-30T09:25:23;19.60;99.90
324;DHT22;149;51.094;17.002;2023-09-30T09:27:53;19.60;99.90
324;DHT22;149;51.094;17.002;2023-09-30T09:30:23;20.30;99.90
324;DHT22;149;51.094;17.002;2023-09-30T09:33:02;20.40;99.90
324;DHT22;149;51.094;17.002;2023-09-30T09:35:31;20.50;99.90
324;DHT22;149;51.094;17.002;2023-09-30T09:38:08;20.40;99.90
324;DHT22;149;51.094;17.002;2023-09-30T09:40:37;20.00;99.90
324;DHT22;149;51.094;17.002;2023-09-30T09:43:09;19.90;99.90
324;DHT22;149;51.094;17.002;2023-09-30T09:45:38;19.70;99.90
324;DHT22;149;51.094;17.002;2023-09-30T09:48:05;20.20;99.90
324;DHT22;149;51.094;17.002;2023-09-30T09:50:34;20.10;99.90
324;DHT22;149;51.094;17.002;2023-09-30T09:53:04;19.70;99.90
324;DHT22;149;51.094;17.002;2023-09-30T09:55:31;19.50;99.90
324;DHT22;149;51.094;17.002;2023-09-30T09:58:02;19.70;99.90
324;DHT22;149;51.094;17.002;2023-09-30T10:00:29;19.60;99.90
324;DHT22;149;51.094;17.002;2023-09-30T10:02:58;19.60;99.90
324;DHT22;149;51.094;17.002;2023-09-30T10:05:26;19.50;99.90
324;DHT22;149;51.094;17.002;2023-09-30T10:08:05;19.50;99.90
324;DHT22;149;51.094;17.002;2023-09-30T10:10:36;19.60;99.90
324;DHT22;149;51.094;17.002;2023-09-30T10:13:04;19.80;99.90
324;DHT22;149;51.094;17.002;2023-09-30T10:18:06;19.70;99.90
324;DHT22;149;51.094;17.002;2023-09-30T10:20:43;20.00;99.90
324;DHT22;149;51.094;17.002;2023-09-30T10:23:26;19.80;99.90
324;DHT22;149;51.094;17.002;2023-09-30T10:26:13;19.50;99.90
324;DHT22;149;51.094;17.002;2023-09-30T10:28:46;19.40;99.90
324;DHT22;149;51.094;17.002;2023-09-30T10:31:21;19.20;99.90
324;DHT22;149;51.094;17.002;2023-09-30T10:36:32;19.50;99.90
324;DHT22;149;51.094;17.002;2023-09-30T10:39:00;19.40;99.90
324;DHT22;149;51.094;17.002;2023-09-30T10:41:49;19.50;99.90
324;DHT22;149;51.094;17.002;2023-09-30T10:47:34;19.70;99.90
324;DHT22;149;51.094;17.002;2023-09-30T10:50:04;19.80;99.90
324;DHT22;149;51.094;17.002;2023-09-30T10:52:49;19.60;99.90
324;DHT22;149;51.094;17.002;2023-09-30T10:55:19;19.80;99.90
324;DHT22;149;51.094;17.002;2023-09-30T10:57:50;19.50;99.90
324;DHT22;149;51.094;17.002;2023-09-30T11:00:18;19.90;99.90
324;DHT22;149;51.094;17.002;2023-09-30T11:02:51;19.80;99.90
324;DHT22;149;51.094;17.002;2023-09-30T11:05:19;19.90;99.90
324;DHT22;149;51.094;17.002;2023-09-30T11:08:10;19.70;99.90
324;DHT22;149;51.094;17.002;2023-09-30T11:10:37;19.60;99.90
324;DHT22;149;51.094;17.002;2023-09-30T11:13:04;19.60;99.90
324;DHT22;149;51.094;17.002;2023-09-30T11:15:32;19.80;99.90
324;DHT22;149;51.094;17.002;2023-09-30T11:18:14;19.70;99.90
324;DHT22;149;51.094;17.002;2023-09-30T11:20:45;19.70;99.90
324;DHT22;149;51.094;17.002;2023-09-30T11:23:12;19.70;99.90
324;DHT22;149;51.094;17.002;2023-09-30T11:25:40;19.70;99.90
324;DHT22;149;51.094;17.002;2023-09-30T11:28:17;19.60;99.90
324;DHT22;149;51.094;17.002;2023-09-30T11:30:56;19.50;99.90
324;DHT22;149;51.094;17.002;2023-09-30T11:33:25;19.60;99.90
324;DHT22;149;51.094;17.002;2023-09-30T11:38:28;19.40;99.90
324;DHT22;149;51.094;17.002;2023-09-30T11:41:03;19.40;99.90
324;DHT22;149;51.094;17.002;2023-09-30T11:44:04;19.60;99.90
324;DHT22;149;51.094;17.002;2023-09-30T11:46:32;19.70;99.90
324;DHT22;149;51.094;17.002;2023-09-30T11:49:02;19.70;99.90
324;DHT22;149;51.094;17.002;2023-09-30T11:51:29;19.80;99.90
324;DHT22;149;51.094;17.002;2023-09-30T11:54:00;19.90;99.90
324;DHT22;149;51.094;17.002;2023-09-30T11:56:29;20.00;99.90
324;DHT22;149;51.094;17.002;2023-09-30T11:58:56;20.10;99.90
324;DHT22;149;51.094;17.002;2023-09-30T12:01:24;20.00;99.90
324;DHT22;149;51.094;17.002;2023-09-30T12:03:54;19.90;99.90
324;DHT22;149;51.094;17.002;2023-09-30T12:06:24;20.10;99.90
324;DHT22;149;51.094;17.002;2023-09-30T12:08:52;19.80;99.90
324;DHT22;149;51.094;17.002;2023-09-30T12:11:19;19.70;99.90
324;DHT22;149;51.094;17.002;2023-09-30T12:13:46;19.80;99.90
324;DHT22;149;51.094;17.002;2023-09-30T12:16:16;19.60;99.90
324;DHT22;149;51.094;17.002;2023-09-30T12:18:43;19.50;99.90
324;DHT22;149;51.094;17.002;2023-09-30T12:21:11;19.20;99.90
324;DHT22;149;51.094;17.002;2023-09-30T12:23:40;19.30;99.90
324;DHT22;149;51.094;17.002;2023-09-30T12:26:08;19.20;99.90
324;DHT22;149;51.094;17.002;2023-09-30T12:28:42;19.40;99.90
324;DHT22;149;51.094;17.002;2023-09-30T12:31:09;19.50;99.90
324;DHT22;149;51.094;17.002;2023-09-30T12:33:40;19.20;99.90
324;DHT22;149;51.094;17.002;2023-09-30T12:36:10;19.00;99.90
324;DHT22;149;51.094;17.002;2023-09-30T12:38:40;19.30;99.90
324;DHT22;149;51.094;17.002;2023-09-30T12:41:09;19.20;99.90
324;DHT22;149;51.094;17.002;2023-09-30T12:43:37;19.50;99.90
324;DHT22;149;51.094;17.002;2023-09-30T12:46:04;19.60;99.90
324;DHT22;149;51.094;17.002;2023-09-30T12:48:32;19.50;99.90
324;DHT22;149;51.094;17.002;2023-09-30T12:51:01;19.60;99.90
324;DHT22;149;51.094;17.002;2023-09-30T12:56:05;19.80;99.90
324;DHT22;149;51.094;17.002;2023-09-30T12:58:32;19.90;99.90
324;DHT22;149;51.094;17.002;2023-09-30T13:01:02;19.90;99.90
324;DHT22;149;51.094;17.002;2023-09-30T13:03:49;20.00;99.90
324;DHT22;149;51.094;17.002;2023-09-30T13:06:16;19.90;99.90
324;DHT22;149;51.094;17.002;2023-09-30T13:08:50;19.80;99.90
324;DHT22;149;51.094;17.002;2023-09-30T13:11:17;19.80;99.90
324;DHT22;149;51.094;17.002;2023-09-30T13:13:45;20.00;99.90
324;DHT22;149;51.094;17.002;2023-09-30T13:16:13;20.10;99.90
324;DHT22;149;51.094;17.002;2023-09-30T13:21:25;19.90;99.90
324;DHT22;149;51.094;17.002;2023-09-30T13:26:29;19.90;99.90
324;DHT22;149;51.094;17.002;2023-09-30T13:31:39;19.80;99.90
324;DHT22;149;51.094;17.002;2023-09-30T13:34:07;20.10;99.90
324;DHT22;149;51.094;17.002;2023-09-30T13:36:34;20.00;99.90
324;DHT22;149;51.094;17.002;2023-09-30T13:39:04;20.00;99.90
324;DHT22;149;51.094;17.002;2023-09-30T13:41:35;20.00;99.90
324;DHT22;149;51.094;17.002;2023-09-30T13:44:02;20.00;99.90
324;DHT22;149;51.094;17.002;2023-09-30T13:46:29;19.40;99.90
324;DHT22;149;51.094;17.002;2023-09-30T13:49:00;19.10;99.90
324;DHT22;149;51.094;17.002;2023-09-30T13:51:27;18.90;99.90
324;DHT22;149;51.094;17.002;2023-09-30T13:53:54;18.90;99.90
324;DHT22;149;51.094;17.002;2023-09-30T13:56:25;18.80;99.90
324;DHT22;149;51.094;17.002;2023-09-30T13:58:52;18.80;99.90
324;DHT22;149;51.094;17.002;2023-09-30T14:01:19;18.80;99.90
324;DHT22;149;51.094;17.002;2023-09-30T14:03:48;18.70;99.90
324;DHT22;149;51.094;17.002;2023-09-30T14:06:16;18.50;99.90
324;DHT22;149;51.094;17.002;2023-09-30T14:08:43;18.50;99.90
324;DHT22;149;51.094;17.002;2023-09-30T14:11:13;18.50;99.90
324;DHT22;149;51.094;17.002;2023-09-30T14:13:40;18.50;99.90
324;DHT22;149;51.094;17.002;2023-09-30T14:16:07;18.60;99.90
324;DHT22;149;51.094;17.002;2023-09-30T14:18:35;18.60;99.90
324;DHT22;149;51.094;17.002;2023-09-30T14:21:05;18.50;99.90
324;DHT22;149;51.094;17.002;2023-09-30T14:23:33;18.50;99.90
324;DHT22;149;51.094;17.002;2023-09-30T14:26:05;18.50;99.90
324;DHT22;149;51.094;17.002;2023-09-30T14:28:38;18.80;99.90
324;DHT22;149;51.094;17.002;2023-09-30T14:31:04;18.70;99.90
324;DHT22;149;51.094;17.002;2023-09-30T14:33:32;18.60;99.90
324;DHT22;149;51.094;17.002;2023-09-30T14:36:03;18.50;99.90
324;DHT22;149;51.094;17.002;2023-09-30T14:38:33;18.60;99.90
324;DHT22;149;51.094;17.002;2023-09-30T14:41:00;18.70;99.90
324;DHT22;149;51.094;17.002;2023-09-30T14:43:27;18.90;99.90
324;DHT22;149;51.094;17.002;2023-09-30T14:45:54;18.90;99.90
324;DHT22;149;51.094;17.002;2023-09-30T14:48:22;18.80;99.90
324;DHT22;149;51.094;17.002;2023-09-30T14:50:50;18.90;99.90
324;DHT22;149;51.094;17.002;2023-09-30T14:53:18;18.90;99.90
324;DHT22;149;51.094;17.002;2023-09-30T14:55:46;18.80;99.90
324;DHT22;149;51.094;17.002;2023-09-30T14:58:13;18.80;99.90
324;DHT22;149;51.094;17.002;2023-09-30T15:00:40;18.60;99.90
324;DHT22;149;51.094;17.002;2023-09-30T15:03:08;18.50;99.90
324;DHT22;149;51.094;17.002;2023-09-30T15:05:35;18.40;99.90
324;DHT22;149;51.094;17.002;2023-09-30T15:08:03;18.40;99.90
324;DHT22;149;51.094;17.002;2023-09-30T15:10:34;18.30;99.90
324;DHT22;149;51.094;17.002;2023-09-30T15:13:02;18.20;99.90
324;DHT22;149;51.094;17.002;2023-09-30T15:15:36;18.10;99.90
324;DHT22;149;51.094;17.002;2023-09-30T15:18:04;18.00;99.90
324;DHT22;149;51.094;17.002;2023-09-30T15:20:38;17.90;99.90
324;DHT22;149;51.094;17.002;2023-09-30T15:23:06;17.90;99.90
324;DHT22;149;51.094;17.002;2023-09-30T15:25:33;17.90;99.90
324;DHT22;149;51.094;17.002;2023-09-30T15:28:00;17.80;99.90
324;DHT22;149;51.094;17.002;2023-09-30T15:30:27;17.70;99.90
324;DHT22;149;51.094;17.002;2023-09-30T15:32:54;17.70;99.90
324;DHT22;149;51.094;17.002;2023-09-30T15:35:21;17.60;99.90
324;DHT22;149;51.094;17.002;2023-09-30T15:37:50;17.70;99.90
324;DHT22;149;51.094;17.002;2023-09-30T15:40:17;17.50;99.90
324;DHT22;149;51.094;17.002;2023-09-30T15:42:45;17.50;99.90
324;DHT22;149;51.094;17.002;2023-09-30T15:45:13;17.40;99.90
324;DHT22;149;51.094;17.002;2023-09-30T15:47:40;17.50;99.90
324;DHT22;149;51.094;17.002;2023-09-30T15:50:08;17.40;99.90
324;DHT22;149;51.094;17.002;2023-09-30T15:52:35;17.30;99.90
324;DHT22;149;51.094;17.002;2023-09-30T15:57:39;17.20;99.90
324;DHT22;149;51.094;17.002;2023-09-30T16:00:10;17.00;99.90
324;DHT22;149;51.094;17.002;2023-09-30T16:05:11;17.10;99.90
324;DHT22;149;51.094;17.002;2023-09-30T16:07:39;17.10;99.90
324;DHT22;149;51.094;17.002;2023-09-30T16:10:06;16.80;99.90
324;DHT22;149;51.094;17.002;2023-09-30T16:12:33;16.80;99.90
324;DHT22;149;51.094;17.002;2023-09-30T16:15:00;16.70;99.90
324;DHT22;149;51.094;17.002;2023-09-30T16:17:32;16.50;99.90
324;DHT22;149;51.094;17.002;2023-09-30T16:20:00;16.70;99.90
324;DHT22;149;51.094;17.002;2023-09-30T16:22:27;16.60;99.90
324;DHT22;149;51.094;17.002;2023-09-30T16:24:54;16.50;99.90
324;DHT22;149;51.094;17.002;2023-09-30T16:27:21;16.40;99.90
324;DHT22;149;51.094;17.002;2023-09-30T16:29:49;16.20;99.90
324;DHT22;149;51.094;17.002;2023-09-30T16:32:17;16.30;99.90
324;DHT22;149;51.094;17.002;2023-09-30T16:34:43;16.30;99.90
324;DHT22;149;51.094;17.002;2023-09-30T16:37:11;16.10;99.90
324;DHT22;149;51.094;17.002;2023-09-30T16:39:38;16.00;99.90
324;DHT22;149;51.094;17.002;2023-09-30T16:42:05;15.90;99.90
324;DHT22;149;51.094;17.002;2023-09-30T16:44:32;15.80;99.90
324;DHT22;149;51.094;17.002;2023-09-30T16:46:59;15.70;99.90
324;DHT22;149;51.094;17.002;2023-09-30T16:49:27;15.60;99.90
324;DHT22;149;51.094;17.002;2023-09-30T16:51:54;15.50;99.90
324;DHT22;149;51.094;17.002;2023-09-30T16:54:21;15.40;99.90